메인 페이지
METAR-TAF:

METAR-TAF

공항 :

Sherbrooke, 퀘벡, 캐나다

위도: 45-24N, 경도: 071-53W, 고도: 170m

현재 날씨관측

예보는 33분 전, 22:00시(UTC)에 발표되었습니다.
7kt, 순간 최대 풍속 15kt
온도 5°C
습도 45%
기압 1017 hPa
시정: 14.5km
고도 24000ft 상공 구름 조금

METAR: CYSC 312200Z AUTO 01007G15KT 9SM FEW240 05/M06 A3002 RMK SLP177

시각: 18:33 (22:33 UTC)

예보

예보는 4 시간 55분 전, 17:38시(UTC)에 발표되었습니다.
예보 대상 시간: 31일 18시부터 01일 03시까지 (UTC)
북동10kt, 순간 최대 풍속 20kt
시정: 10km
고도 24000ft 상공 구름 조금

TAF: CYSC 311738Z 3118/0103 04010G20KT P6SM FEW240 RMK FCST BASED ON AUTO OBS. NXT FCST BY 010000Z

4,000개 이상의 공항 관측 자료 및 예보 (METAR 및 TAF 보고).

지도상에서 검색 가능한 기상관측소가 노란 점과 빨간 점으로 표시되어 있습니다.

기상관측소 명을 보려면 표시 위로 마우스를 이동하세요.

날씨 관측과 예보를 보려면 클릭하세요.

지도 변경 : 확대하려면 엑스 표시가 있는 녹색 버튼, 축소하려면 빼기 표시가 있는 녹색 버튼, 다음 페이지의 지도를 보려면 녹색 화살표를 클릭하세요.


METAR-TAF: